Time;durP1;ratioP1;P1;durP2;ratioP2;P2;SDS_P1;SDS_P2;PMS_P1;PMS_P2;Temp;Humidity;BMP_temperature;BMP_pressure;BME280_temperature;BME280_humidity;BME280_pressure;Samples;Min_cycle;Max_cycle;Signal;HPM_P1;HPM_P2
2023/05/22 00:01:07;;;;;;;18.30;11.60;;;18.20;91.30;;;;;;6215572;23;20009;-84
2023/05/22 00:03:32;;;;;;;21.02;10.55;;;18.30;91.40;;;;;;6214964;23;20072;-85
2023/05/22 00:05:59;;;;;;;15.38;9.85;;;18.30;91.40;;;;;;6215143;23;20011;-84
2023/05/22 00:08:27;;;;;;;15.18;10.18;;;18.30;91.50;;;;;;6214946;23;20008;-82
2023/05/22 00:10:53;;;;;;;20.67;10.90;;;18.30;91.50;;;;;;6215280;23;20335;-83
2023/05/22 00:13:19;;;;;;;19.90;11.52;;;18.30;91.60;;;;;;6215523;23;20014;-84
2023/05/22 00:15:45;;;;;;;19.65;11.15;;;18.30;91.70;;;;;;6188517;23;20085;-85
2023/05/22 00:18:12;;;;;;;14.65;11.05;;;18.30;91.80;;;;;;6219350;23;20000;-84
2023/05/22 00:20:39;;;;;;;16.90;10.70;;;18.30;91.80;;;;;;6217930;23;20012;-84
2023/05/22 00:23:09;;;;;;;17.27;11.15;;;18.30;91.80;;;;;;6221578;23;20000;-84
2023/05/22 00:25:35;;;;;;;19.88;11.40;;;18.30;91.80;;;;;;6217731;23;20004;-85
2023/05/22 00:28:00;;;;;;;23.65;11.43;;;18.20;91.70;;;;;;6217311;23;20016;-84
2023/05/22 00:30:26;;;;;;;15.95;10.55;;;18.30;91.90;;;;;;6217766;23;20008;-84
2023/05/22 00:32:52;;;;;;;18.25;10.88;;;18.30;91.90;;;;;;6217669;23;20068;-84
2023/05/22 00:35:17;;;;;;;22.92;11.55;;;18.30;91.90;;;;;;6217672;23;20007;-84
2023/05/22 00:37:44;;;;;;;15.05;11.13;;;18.20;91.70;;;;;;6217616;23;20358;-83
2023/05/22 00:40:11;;;;;;;14.98;11.27;;;18.20;91.70;;;;;;6215598;23;20032;-84
2023/05/22 00:42:37;;;;;;;18.45;11.27;;;18.20;91.90;;;;;;6215181;23;20011;-85
2023/05/22 00:45:05;;;;;;;15.48;12.07;;;18.10;91.90;;;;;;6214877;23;20001;-85
2023/05/22 00:47:31;;;;;;;14.68;10.98;;;18.10;91.90;;;;;;6215388;23;20055;-85
2023/05/22 00:49:58;;;;;;;15.23;11.30;;;18.10;91.90;;;;;;6214985;23;20009;-84
2023/05/22 00:52:24;;;;;;;17.83;11.32;;;18.10;91.90;;;;;;6215222;23;20423;-84
2023/05/22 00:54:52;;;;;;;16.20;11.25;;;18.10;91.90;;;;;;6214831;23;20013;-84
2023/05/22 00:57:19;;;;;;;16.15;11.15;;;18.10;91.90;;;;;;6190278;23;20000;-85
2023/05/22 00:59:45;;;;;;;18.45;11.43;;;18.10;92.00;;;;;;6220812;23;19996;-83
2023/05/22 01:02:15;;;;;;;17.35;11.05;;;18.10;92.10;;;;;;6214493;23;19996;-83
2023/05/22 01:04:44;;;;;;;16.50;11.20;;;18.10;92.10;;;;;;6238730;23;20016;-80
2023/05/22 01:07:10;;;;;;;17.05;10.82;;;18.10;92.10;;;;;;6227198;23;20315;-85
2023/05/22 01:09:35;;;;;;;16.42;10.50;;;18.20;92.10;;;;;;6222682;23;20039;-85
2023/05/22 01:12:01;;;;;;;14.35;9.52;;;18.20;92.10;;;;;;6221664;23;20279;-84
2023/05/22 01:14:38;;;;;;;17.08;11.05;;;18.20;92.00;;;;;;6221948;23;20012;-83
2023/05/22 01:17:15;;;;;;;16.52;10.13;;;18.20;92.20;;;;;;6226601;23;20000;-84
2023/05/22 01:19:40;;;;;;;17.17;10.13;;;18.10;92.20;;;;;;6218638;23;20087;-84
2023/05/22 01:22:34;;;;;;;14.10;8.73;;;18.10;92.10;;;;;;6218150;23;20410;-84
2023/05/22 01:25:15;;;;;;;17.63;10.60;;;18.20;92.30;;;;;;6216686;23;20014;-84
2023/05/22 01:28:09;;;;;;;16.55;10.40;;;18.10;92.20;;;;;;6217648;23;20442;-84
2023/05/22 01:30:49;;;;;;;13.90;10.77;;;18.10;92.30;;;;;;6218258;23;20099;-84
2023/05/22 01:33:16;;;;;;;13.05;10.13;;;18.10;92.20;;;;;;6218118;23;20096;-84
2023/05/22 01:35:50;;;;;;;19.20;10.40;;;18.00;92.20;;;;;;6218446;23;20009;-85
2023/05/22 01:38:16;;;;;;;14.38;9.65;;;18.10;92.30;;;;;;6217779;23;20047;-84
2023/05/22 01:40:44;;;;;;;14.70;10.05;;;18.10;92.30;;;;;;6216718;23;20185;-84
2023/05/22 01:43:11;;;;;;;16.05;10.00;;;18.10;92.40;;;;;;6192187;23;20331;-84
2023/05/22 01:45:37;;;;;;;15.00;9.85;;;18.10;92.30;;;;;;6216721;23;20004;-85
2023/05/22 01:48:03;;;;;;;16.65;9.50;;;18.10;92.30;;;;;;6216921;23;20489;-84
2023/05/22 01:50:29;;;;;;;14.05;8.98;;;18.10;92.40;;;;;;6217501;23;20458;-85
2023/05/22 01:53:10;;;;;;;16.77;9.65;;;18.10;92.30;;;;;;6218040;23;20138;-84
2023/05/22 01:55:54;;;;;;;12.65;9.52;;;18.20;92.40;;;;;;6223011;23;20040;-84
2023/05/22 01:58:38;;;;;;;16.98;9.45;;;18.10;92.40;;;;;;6226701;23;19997;-84
2023/05/22 02:01:05;;;;;;;13.65;9.25;;;18.10;92.30;;;;;;6221920;23;20012;-84
2023/05/22 02:03:33;;;;;;;15.65;9.73;;;18.10;92.40;;;;;;6217599;23;20343;-84
2023/05/22 02:06:04;;;;;;;11.10;9.10;;;18.10;92.30;;;;;;6218637;23;20466;-84
2023/05/22 02:08:30;;;;;;;13.68;9.18;;;18.10;92.70;;;;;;6220289;23;19996;-83
2023/05/22 02:10:58;;;;;;;16.38;9.07;;;18.10;92.40;;;;;;6218837;23;20012;-83
2023/05/22 02:13:24;;;;;;;13.00;8.48;;;18.10;92.40;;;;;;6223766;23;20009;-82
2023/05/22 02:15:50;;;;;;;12.63;8.43;;;18.10;92.60;;;;;;6218445;23;20011;-84
2023/05/22 02:18:16;;;;;;;15.32;8.80;;;18.10;92.40;;;;;;6217710;23;20334;-84
2023/05/22 02:20:42;;;;;;;13.20;8.48;;;18.10;92.40;;;;;;6189406;23;20033;-84
2023/05/22 02:23:08;;;;;;;12.63;8.35;;;18.00;92.50;;;;;;6215908;23;20001;-85
2023/05/22 02:25:34;;;;;;;16.65;7.50;;;18.00;92.40;;;;;;6215966;23;20028;-84
2023/05/22 02:28:00;;;;;;;14.25;8.60;;;18.10;92.60;;;;;;6189841;23;20012;-82
2023/05/22 02:30:25;;;;;;;11.10;8.63;;;18.00;92.40;;;;;;6215946;23;19997;-84
2023/05/22 02:32:51;;;;;;;15.23;9.18;;;18.00;92.60;;;;;;6217534;23;20059;-84
2023/05/22 02:35:17;;;;;;;14.00;8.80;;;18.00;92.60;;;;;;6217427;23;20011;-84
2023/05/22 02:37:42;;;;;;;12.60;8.77;;;18.00;92.60;;;;;;6216314;23;20272;-84
2023/05/22 02:40:11;;;;;;;17.63;8.63;;;18.00;92.70;;;;;;6188941;23;20015;-84
2023/05/22 02:42:37;;;;;;;18.67;8.95;;;18.00;92.80;;;;;;6216166;23;20457;-84
2023/05/22 02:45:03;;;;;;;15.25;9.55;;;17.90;92.70;;;;;;6216521;23;20032;-84
2023/05/22 02:47:29;;;;;;;13.35;9.15;;;17.90;92.80;;;;;;6216458;23;20084;-86
2023/05/22 02:49:56;;;;;;;17.40;9.80;;;17.90;92.80;;;;;;6216913;23;20001;-82
2023/05/22 02:52:23;;;;;;;18.75;9.73;;;17.90;92.90;;;;;;6218064;23;20008;-83
2023/05/22 02:54:49;;;;;;;15.30;9.93;;;17.80;93.00;;;;;;6216443;23;20036;-84
2023/05/22 02:57:15;;;;;;;12.73;9.20;;;17.80;93.00;;;;;;6216263;23;19997;-84
2023/05/22 02:59:41;;;;;;;15.27;10.52;;;17.80;93.00;;;;;;6216194;23;20005;-83
2023/05/22 03:02:07;;;;;;;15.90;10.70;;;17.80;93.00;;;;;;6216478;23;20020;-84
2023/05/22 03:04:32;;;;;;;16.83;10.45;;;17.80;93.10;;;;;;6216282;23;20039;-85
2023/05/22 03:07:00;;;;;;;17.48;11.25;;;17.80;93.10;;;;;;6217150;23;20419;-84
2023/05/22 03:09:25;;;;;;;16.38;10.90;;;17.80;93.20;;;;;;6221928;23;20008;-84
2023/05/22 03:11:51;;;;;;;16.33;11.23;;;17.80;93.20;;;;;;6233640;23;20028;-82
2023/05/22 03:14:17;;;;;;;16.33;12.10;;;17.80;93.30;;;;;;6228239;23;20017;-84
2023/05/22 03:16:43;;;;;;;16.05;11.05;;;17.80;93.40;;;;;;6199712;23;20465;-83
2023/05/22 03:19:13;;;;;;;16.42;11.52;;;17.70;93.40;;;;;;6230450;23;19993;-83
2023/05/22 03:21:40;;;;;;;20.98;11.38;;;17.70;93.50;;;;;;6217347;23;20023;-84
2023/05/22 03:24:06;;;;;;;14.52;10.65;;;17.70;93.50;;;;;;6216268;23;20008;-83
2023/05/22 03:26:32;;;;;;;15.60;11.35;;;17.70;93.60;;;;;;6216431;23;20023;-83
2023/05/22 03:28:58;;;;;;;15.02;10.50;;;17.70;93.60;;;;;;6216065;23;20087;-84
2023/05/22 03:31:25;;;;;;;14.70;10.20;;;17.70;93.70;;;;;;6216512;23;20025;-84
2023/05/22 03:33:51;;;;;;;14.05;10.88;;;17.70;93.70;;;;;;6215941;23;20345;-84
2023/05/22 03:36:18;;;;;;;14.43;10.18;;;17.60;93.70;;;;;;6216786;23;20028;-82
2023/05/22 03:38:43;;;;;;;13.75;9.77;;;17.60;93.80;;;;;;6216866;23;20032;-83
2023/05/22 03:41:09;;;;;;;17.25;9.95;;;17.60;93.80;;;;;;6220162;23;20316;-84
2023/05/22 03:43:35;;;;;;;16.25;10.27;;;17.60;93.90;;;;;;6225344;23;20035;-83
2023/05/22 03:46:00;;;;;;;16.65;10.15;;;17.60;93.90;;;;;;6217284;23;20001;-83
2023/05/22 03:48:27;;;;;;;15.02;9.70;;;17.60;93.90;;;;;;6215529;23;20054;-85
2023/05/22 03:50:52;;;;;;;14.73;10.68;;;17.60;94.00;;;;;;6215011;23;20039;-84
2023/05/22 03:53:18;;;;;;;21.23;11.80;;;17.60;94.00;;;;;;6215616;23;20016;-83
2023/05/22 03:55:44;;;;;;;16.02;10.77;;;17.50;93.90;;;;;;6215968;23;20024;-84
2023/05/22 03:58:09;;;;;;;15.77;10.43;;;17.50;93.90;;;;;;6215941;23;20297;-84
2023/05/22 04:00:37;;;;;;;13.75;10.57;;;17.50;93.90;;;;;;6215521;23;20345;-84
2023/05/22 04:03:03;;;;;;;18.45;11.02;;;17.50;94.00;;;;;;6220672;23;20008;-83
2023/05/22 04:05:30;;;;;;;19.52;11.45;;;17.50;94.10;;;;;;6221603;23;20138;-84
2023/05/22 04:07:56;;;;;;;17.27;10.95;;;17.50;94.00;;;;;;6216660;23;20408;-84
2023/05/22 04:10:22;;;;;;;20.10;11.50;;;17.60;94.00;;;;;;6215491;23;19996;-83
2023/05/22 04:12:48;;;;;;;18.73;11.05;;;17.60;94.10;;;;;;6215631;23;20047;-83
2023/05/22 04:15:14;;;;;;;17.08;11.35;;;17.60;94.10;;;;;;6189526;23;20024;-85
2023/05/22 04:17:42;;;;;;;17.27;10.75;;;17.50;94.00;;;;;;6216361;23;20319;-84
2023/05/22 04:20:10;;;;;;;17.42;10.77;;;17.60;93.90;;;;;;6220316;23;20028;-84
2023/05/22 04:22:35;;;;;;;13.30;10.15;;;17.50;94.00;;;;;;6217196;23;20007;-83
2023/05/22 04:25:01;;;;;;;18.63;11.30;;;17.60;94.00;;;;;;6194530;23;20036;-83
2023/05/22 04:27:28;;;;;;;21.42;11.27;;;17.50;94.10;;;;;;6219005;23;20005;-83
2023/05/22 04:29:54;;;;;;;18.25;11.40;;;17.50;94.20;;;;;;6218187;23;20008;-84
2023/05/22 04:32:23;;;;;;;16.02;11.20;;;17.50;94.20;;;;;;6215990;23;20001;-83
2023/05/22 04:34:51;;;;;;;18.63;11.57;;;17.50;94.00;;;;;;6217633;23;20019;-82
2023/05/22 04:37:19;;;;;;;20.30;11.45;;;17.60;94.10;;;;;;6218417;23;20100;-84
2023/05/22 04:39:45;;;;;;;21.42;11.32;;;17.70;94.10;;;;;;6218169;23;20005;-85
2023/05/22 04:42:14;;;;;;;15.73;10.18;;;17.70;93.90;;;;;;6217312;23;20294;-84
2023/05/22 04:44:40;;;;;;;18.83;9.90;;;17.70;93.90;;;;;;6217892;23;20320;-84
2023/05/22 04:47:10;;;;;;;15.95;10.93;;;17.80;93.90;;;;;;6190611;23;20005;-84
2023/05/22 04:49:37;;;;;;;17.75;11.13;;;17.80;93.80;;;;;;6217887;23;20012;-84
2023/05/22 04:52:04;;;;;;;16.88;10.85;;;17.90;93.80;;;;;;6217692;23;20063;-84
2023/05/22 04:54:30;;;;;;;19.23;10.52;;;18.00;93.60;;;;;;6217108;23;20032;-84
2023/05/22 04:56:56;;;;;;;20.23;11.40;;;18.10;93.60;;;;;;6219182;23;19996;-84
2023/05/22 04:59:22;;;;;;;21.95;11.13;;;18.20;93.60;;;;;;6218535;23;20004;-83
2023/05/22 05:01:49;;;;;;;14.77;10.23;;;18.30;93.30;;;;;;6219868;23;20299;-83
2023/05/22 05:04:16;;;;;;;18.70;10.82;;;18.40;93.10;;;;;;6219314;23;20012;-82
2023/05/22 05:06:42;;;;;;;17.92;11.55;;;18.40;93.00;;;;;;6218712;23;20004;-84
2023/05/22 05:09:08;;;;;;;19.20;11.63;;;18.50;92.90;;;;;;6219381;23;20009;-84
2023/05/22 05:11:34;;;;;;;21.85;10.90;;;18.50;92.80;;;;;;6218676;23;19997;-84
2023/05/22 05:14:00;;;;;;;17.42;11.65;;;18.50;92.70;;;;;;6222001;23;20036;-85
2023/05/22 05:16:26;;;;;;;22.08;12.07;;;18.60;92.60;;;;;;6225523;23;20000;-84
2023/05/22 05:18:52;;;;;;;16.05;11.68;;;18.70;92.50;;;;;;6221419;23;20057;-86
2023/05/22 05:21:20;;;;;;;19.27;11.40;;;18.80;92.30;;;;;;6233215;23;20028;-82
2023/05/22 05:23:46;;;;;;;20.98;11.68;;;18.90;92.10;;;;;;6237473;23;20009;-81
2023/05/22 05:26:12;;;;;;;24.15;10.57;;;18.90;92.00;;;;;;6234906;23;19997;-84
2023/05/22 05:28:37;;;;;;;16.50;11.40;;;18.90;91.90;;;;;;6226758;23;20075;-83
2023/05/22 05:31:03;;;;;;;19.58;10.63;;;19.00;91.90;;;;;;6219911;23;20024;-84
2023/05/22 05:33:29;;;;;;;16.80;10.63;;;19.00;91.80;;;;;;6218087;23;20009;-84
2023/05/22 05:35:55;;;;;;;19.52;10.70;;;19.10;91.70;;;;;;6219726;23;20035;-84
2023/05/22 05:38:21;;;;;;;14.68;10.40;;;19.10;91.60;;;;;;6218495;23;20027;-83
2023/05/22 05:40:47;;;;;;;16.10;10.60;;;19.20;91.40;;;;;;6219586;23;20016;-81
2023/05/22 05:43:14;;;;;;;16.25;10.23;;;19.30;91.30;;;;;;6218883;23;20084;-80
2023/05/22 05:45:40;;;;;;;16.77;9.70;;;19.40;91.20;;;;;;6217376;23;20015;-84
2023/05/22 05:48:06;;;;;;;19.27;10.13;;;19.60;90.90;;;;;;6216788;23;20049;-80
2023/05/22 05:50:32;;;;;;;15.73;8.93;;;19.80;90.80;;;;;;6224371;23;20308;-79
2023/05/22 05:52:58;;;;;;;17.48;9.82;;;19.90;90.40;;;;;;6228828;23;19997;-81
2023/05/22 05:55:24;;;;;;;16.02;8.95;;;20.00;90.10;;;;;;6223349;23;20009;-76
2023/05/22 05:57:51;;;;;;;18.42;9.27;;;20.20;90.00;;;;;;6215969;23;20001;-80
2023/05/22 06:00:17;;;;;;;14.40;8.52;;;20.40;89.00;;;;;;6216341;23;20042;-78
2023/05/22 06:02:44;;;;;;;17.30;9.10;;;20.60;88.40;;;;;;6217892;23;20001;-74
2023/05/22 06:05:10;;;;;;;13.88;8.60;;;20.70;88.10;;;;;;6214805;23;20036;-74
2023/05/22 06:07:39;;;;;;;17.67;9.02;;;20.80;87.30;;;;;;6215115;23;20311;-74
2023/05/22 06:10:06;;;;;;;17.05;8.80;;;20.90;86.70;;;;;;6214389;23;20000;-74
2023/05/22 06:12:32;;;;;;;14.85;8.63;;;21.20;86.50;;;;;;6214471;23;20307;-76
2023/05/22 06:14:58;;;;;;;18.33;8.88;;;21.30;85.60;;;;;;6188788;23;20032;-81
2023/05/22 06:17:24;;;;;;;15.10;7.95;;;21.40;84.60;;;;;;6217854;23;20103;-84
2023/05/22 06:19:49;;;;;;;14.27;8.10;;;21.60;84.00;;;;;;6217153;23;20403;-80
2023/05/22 06:22:15;;;;;;;9.43;7.25;;;21.70;83.50;;;;;;6216480;23;20003;-79
2023/05/22 06:24:41;;;;;;;11.90;7.57;;;21.80;83.40;;;;;;6218574;23;20339;-79
2023/05/22 06:27:07;;;;;;;26.85;8.98;;;21.90;82.60;;;;;;6215223;23;20074;-78
2023/05/22 06:29:32;;;;;;;15.40;8.13;;;22.10;83.00;;;;;;6188712;23;20004;-76
2023/05/22 06:31:58;;;;;;;12.88;8.65;;;22.30;82.40;;;;;;6213343;23;20348;-80
2023/05/22 06:34:24;;;;;;;15.18;7.82;;;22.30;81.30;;;;;;6214222;23;20324;-79
2023/05/22 06:36:50;;;;;;;12.55;7.85;;;22.40;81.40;;;;;;6215670;23;20000;-79
2023/05/22 06:39:20;;;;;;;16.52;8.50;;;22.60;81.40;;;;;;6215627;23;20001;-79
2023/05/22 06:41:46;;;;;;;19.42;8.18;;;22.80;80.40;;;;;;6215643;23;20099;-76
2023/05/22 06:44:12;;;;;;;16.27;7.43;;;22.90;79.60;;;;;;6216956;23;20011;-82
2023/05/22 06:46:37;;;;;;;10.40;7.15;;;23.00;79.50;;;;;;6218734;23;20076;-82
2023/05/22 06:49:03;;;;;;;14.98;7.50;;;23.00;79.00;;;;;;6217944;23;20000;-76
2023/05/22 06:51:30;;;;;;;17.88;6.88;;;23.00;78.70;;;;;;6188100;23;20155;-80
2023/05/22 06:53:56;;;;;;;13.23;6.90;;;23.00;77.70;;;;;;6189013;23;20134;-81
2023/05/22 06:56:23;;;;;;;15.10;7.53;;;23.10;77.60;;;;;;6188565;23;20024;-80
2023/05/22 06:58:49;;;;;;;13.40;6.68;;;23.20;77.60;;;;;;6215051;23;20059;-80
2023/05/22 07:01:15;;;;;;;14.80;6.85;;;23.40;77.00;;;;;;6215265;23;20100;-81
2023/05/22 07:03:40;;;;;;;14.35;6.00;;;23.50;76.30;;;;;;6213415;23;20035;-79
2023/05/22 07:06:06;;;;;;;15.80;6.03;;;23.60;75.70;;;;;;6214662;23;20001;-79
2023/05/22 07:08:32;;;;;;;10.75;6.00;;;23.80;75.30;;;;;;6214871;23;20079;-80
2023/05/22 07:10:58;;;;;;;13.15;7.15;;;24.00;74.80;;;;;;6214990;23;20332;-80
2023/05/22 07:13:24;;;;;;;10.20;6.40;;;24.10;74.60;;;;;;6188269;23;20103;-81
2023/05/22 07:15:49;;;;;;;13.63;6.88;;;24.10;73.70;;;;;;6215313;23;20019;-79
2023/05/22 07:18:16;;;;;;;12.75;6.13;;;24.20;74.20;;;;;;6215070;23;19997;-79
2023/05/22 07:20:41;;;;;;;12.95;5.65;;;24.40;73.90;;;;;;6217018;23;20031;-80
2023/05/22 07:23:08;;;;;;;11.10;6.20;;;24.30;72.90;;;;;;6214689;23;20384;-81
2023/05/22 07:25:33;;;;;;;15.93;7.38;;;24.40;72.60;;;;;;6188529;23;20020;-80
2023/05/22 07:28:02;;;;;;;15.55;6.25;;;24.50;73.10;;;;;;6218282;23;20028;-81
2023/05/22 07:30:28;;;;;;;13.60;5.20;;;24.70;73.10;;;;;;6219785;23;20020;-80
2023/05/22 07:32:54;;;;;;;14.77;6.43;;;24.80;72.30;;;;;;6220363;23;19997;-82
2023/05/22 07:35:20;;;;;;;12.98;6.22;;;24.90;71.50;;;;;;6203374;23;20043;-88
2023/05/22 07:37:46;;;;;;;10.38;5.90;;;25.00;71.30;;;;;;6227516;23;20011;-86
2023/05/22 07:40:12;;;;;;;14.52;5.97;;;25.00;70.60;;;;;;6220080;23;20427;-86
2023/05/22 07:42:38;;;;;;;14.10;6.93;;;25.00;70.60;;;;;;6219129;23;20004;-85
2023/05/22 07:45:04;;;;;;;8.18;5.75;;;25.00;69.90;;;;;;6218799;23;20004;-83
2023/05/22 07:47:29;;;;;;;11.27;5.20;;;24.80;68.10;;;;;;6223283;23;20022;-87
2023/05/22 07:49:55;;;;;;;9.32;4.88;;;24.60;68.10;;;;;;6231205;23;20005;-88
2023/05/22 07:52:22;;;;;;;9.07;5.95;;;24.50;68.00;;;;;;6201867;23;20004;-88
2023/05/22 07:54:48;;;;;;;12.40;5.28;;;24.50;68.00;;;;;;6220598;23;20043;-86
2023/05/22 07:57:14;;;;;;;12.02;5.15;;;24.50;68.10;;;;;;6205966;23;19985;-86
2023/05/22 07:59:42;;;;;;;11.27;4.57;;;24.40;67.30;;;;;;6236969;23;19992;-85
2023/05/22 08:02:08;;;;;;;10.20;5.20;;;24.40;67.10;;;;;;6239921;23;20125;-84
2023/05/22 08:04:34;;;;;;;11.73;5.50;;;24.50;67.30;;;;;;6213567;23;20016;-85
2023/05/22 08:07:00;;;;;;;10.10;5.32;;;24.50;67.50;;;;;;6235258;23;20008;-86
2023/05/22 08:09:26;;;;;;;8.63;4.97;;;24.60;67.30;;;;;;6222191;23;20004;-88
2023/05/22 08:11:51;;;;;;;9.95;5.25;;;24.60;67.50;;;;;;6194122;23;20084;-86
2023/05/22 08:14:20;;;;;;;8.95;4.60;;;24.60;67.10;;;;;;6222852;23;20008;-88
2023/05/22 08:16:45;;;;;;;8.18;4.82;;;24.60;66.80;;;;;;6220268;23;19996;-87
2023/05/22 08:19:11;;;;;;;7.68;4.60;;;24.50;66.60;;;;;;6218094;23;20028;-85
2023/05/22 08:21:37;;;;;;;13.48;5.45;;;24.50;66.30;;;;;;6217154;23;20005;-86
2023/05/22 08:24:03;;;;;;;14.32;5.57;;;24.50;66.80;;;;;;6219003;23;20004;-87
2023/05/22 08:26:28;;;;;;;11.45;5.70;;;24.50;66.40;;;;;;6219283;23;19996;-87
2023/05/22 08:28:54;;;;;;;10.88;5.47;;;24.50;66.50;;;;;;6219640;23;20001;-85
2023/05/22 08:31:21;;;;;;;12.07;4.72;;;24.40;66.00;;;;;;6220806;23;20055;-90
2023/05/22 08:33:47;;;;;;;11.82;5.07;;;24.40;65.50;;;;;;6218620;23;20021;-88
2023/05/22 08:36:13;;;;;;;8.25;5.38;;;24.30;65.60;;;;;;6219620;23;20135;-86
2023/05/22 08:38:39;;;;;;;8.85;4.47;;;24.30;66.30;;;;;;6228466;23;20005;-86
2023/05/22 08:41:07;;;;;;;12.45;5.60;;;24.30;66.30;;;;;;6194268;23;20378;-88
2023/05/22 08:43:32;;;;;;;9.57;5.45;;;24.30;66.10;;;;;;6218424;23;20008;-83
2023/05/22 08:46:07;;;;;;;11.73;5.28;;;24.30;66.60;;;;;;6197583;23;20004;-91
2023/05/22 08:48:33;;;;;;;9.25;4.78;;;24.30;65.60;;;;;;6224601;23;20047;-90
2023/05/22 08:51:03;;;;;;;12.48;4.72;;;24.20;65.60;;;;;;6197342;23;20047;-90
2023/05/22 08:53:35;;;;;;;10.45;5.28;;;24.20;65.20;;;;;;6226518;23;20039;-88
2023/05/22 08:56:05;;;;;;;10.48;5.30;;;24.20;65.50;;;;;;6225914;23;20007;-91
2023/05/22 08:58:35;;;;;;;10.27;4.93;;;24.20;66.30;;;;;;6226715;23;20027;-90
2023/05/22 09:01:06;;;;;;;11.98;4.85;;;24.20;65.50;;;;;;6226227;23;20007;-86
2023/05/22 09:03:33;;;;;;;23.75;7.93;;;24.20;65.60;;;;;;6224094;23;20023;-91
2023/05/22 09:06:00;;;;;;;15.20;6.38;;;24.20;66.40;;;;;;6227399;23;20005;-90
2023/05/22 09:08:26;;;;;;;19.92;7.38;;;24.20;66.30;;;;;;6229780;23;20003;-86
2023/05/22 09:10:54;;;;;;;18.50;5.53;;;24.30;66.80;;;;;;6229138;23;20005;-91
2023/05/22 09:13:29;;;;;;;21.35;9.73;;;24.30;66.20;;;;;;6234038;23;20079;-89
2023/05/22 09:15:59;;;;;;;11.30;5.50;;;24.40;67.30;;;;;;6205080;23;20461;-91
2023/05/22 09:18:29;;;;;;;11.73;5.88;;;24.40;66.10;;;;;;6234921;23;20419;-87
2023/05/22 09:20:58;;;;;;;12.75;5.57;;;24.40;66.30;;;;;;6239960;23;19999;-91
2023/05/22 09:23:27;;;;;;;9.63;5.40;;;24.50;65.80;;;;;;6230062;23;20001;-91
2023/05/22 09:25:56;;;;;;;10.23;5.30;;;24.50;65.40;;;;;;6202624;23;20009;-91
2023/05/22 09:28:23;;;;;;;13.38;6.20;;;24.40;64.90;;;;;;6237305;23;20001;-91
2023/05/22 09:30:50;;;;;;;13.65;5.43;;;24.50;65.30;;;;;;6242131;23;19992;-88
2023/05/22 09:33:17;;;;;;;9.20;4.40;;;24.50;65.40;;;;;;6241798;23;20024;-91
2023/05/22 09:35:45;;;;;;;11.45;5.00;;;24.50;64.90;;;;;;6212237;23;20427;-90
2023/05/22 09:38:12;;;;;;;14.40;6.32;;;24.50;64.30;;;;;;6209078;23;20005;-91
2023/05/22 09:40:39;;;;;;;15.27;5.20;;;24.60;64.60;;;;;;6232503;23;20000;-90
2023/05/22 09:43:11;;;;;;;12.98;5.60;;;24.60;64.10;;;;;;6227375;23;19996;-87
2023/05/22 09:45:38;;;;;;;7.55;4.18;;;24.60;64.40;;;;;;6231162;23;20035;-90
2023/05/22 09:48:05;;;;;;;9.45;4.05;;;24.60;63.50;;;;;;6203043;23;20004;-90
2023/05/22 09:50:31;;;;;;;12.57;4.78;;;24.60;63.10;;;;;;6232561;23;20008;-90
2023/05/22 09:53:01;;;;;;;10.57;4.47;;;24.60;62.70;;;;;;6212160;23;19996;-94
2023/05/22 09:55:28;;;;;;;7.32;4.13;;;24.60;62.30;;;;;;6230889;23;20070;-91
2023/05/22 09:57:54;;;;;;;11.95;4.55;;;24.70;62.70;;;;;;6229173;23;20362;-90
2023/05/22 10:00:22;;;;;;;10.73;4.32;;;24.70;62.40;;;;;;6234669;23;20055;-93
2023/05/22 10:03:02;;;;;;;10.95;4.63;;;24.70;61.90;;;;;;6206507;23;20012;-85
2023/05/22 10:05:31;;;;;;;6.90;3.97;;;24.70;61.90;;;;;;6220212;23;20023;-88
2023/05/22 10:08:03;;;;;;;12.20;4.22;;;24.80;62.40;;;;;;6224025;23;20004;-90
2023/05/22 10:10:29;;;;;;;7.75;4.22;;;24.80;61.80;;;;;;6221239;23;20001;-87
2023/05/22 10:12:56;;;;;;;9.40;4.10;;;24.90;61.60;;;;;;6219377;23;20070;-88
2023/05/22 10:15:22;;;;;;;7.93;4.20;;;24.90;61.10;;;;;;6221162;23;20012;-89
2023/05/22 10:17:48;;;;;;;8.85;4.43;;;24.90;61.60;;;;;;6220865;23;20031;-89
2023/05/22 10:20:15;;;;;;;8.77;4.97;;;25.00;61.60;;;;;;6220012;23;20008;-86
2023/05/22 10:22:41;;;;;;;10.90;4.60;;;25.10;62.10;;;;;;6220578;23;20001;-83
2023/05/22 10:25:08;;;;;;;10.52;4.35;;;25.20;61.70;;;;;;6206449;23;20039;-86
2023/05/22 10:27:35;;;;;;;12.93;4.57;;;25.40;61.30;;;;;;6230723;23;20407;-86
2023/05/22 10:30:08;;;;;;;8.80;4.70;;;25.40;61.30;;;;;;6232693;23;20012;-88
2023/05/22 10:33:12;;;;;;;8.80;4.32;;;25.50;61.90;;;;;;6235614;23;20072;-87
2023/05/22 10:35:56;;;;;;;12.73;4.95;;;25.60;61.30;;;;;;6184717;23;20320;-87
2023/05/22 10:38:33;;;;;;;;;;;25.70;61.70;;;;;;6223268;23;20000;-86
2023/05/22 10:41:00;;;;;;;11.48;4.32;;;25.80;61.30;;;;;;6222889;23;19900;-86
2023/05/22 10:43:31;;;;;;;13.20;4.60;;;25.80;61.50;;;;;;6209018;23;19985;-86
2023/05/22 10:46:03;;;;;;;11.35;4.50;;;25.90;60.90;;;;;;6241993;23;20019;-84
2023/05/22 10:48:36;;;;;;;8.70;4.55;;;25.90;61.00;;;;;;6241847;23;20039;-79
2023/05/22 10:51:01;;;;;;;10.00;4.78;;;26.00;60.80;;;;;;6214880;23;20013;-81
2023/05/22 10:53:31;;;;;;;8.75;4.75;;;26.20;60.80;;;;;;6227515;23;20382;-82
2023/05/22 10:56:01;;;;;;;7.30;4.45;;;26.30;60.30;;;;;;6216993;23;20418;-80
2023/05/22 10:58:31;;;;;;;8.38;4.60;;;26.30;60.50;;;;;;6216842;23;20062;-84
2023/05/22 11:01:20;;;;;;;9.27;4.30;;;26.30;60.00;;;;;;6222362;23;19997;-83
2023/05/22 11:04:14;;;;;;;9.45;4.50;;;26.30;59.80;;;;;;6224370;23;20004;-81
2023/05/22 11:06:44;;;;;;;9.60;4.80;;;26.30;60.20;;;;;;6218956;23;20004;-84
2023/05/22 11:09:23;;;;;;;7.72;4.78;;;26.20;60.60;;;;;;6224282;23;20032;-86
2023/05/22 11:12:24;;;;;;;14.70;4.50;;;26.20;60.40;;;;;;6221403;23;20004;-81
2023/05/22 11:14:56;;;;;;;8.43;5.05;;;26.30;61.00;;;;;;6219300;23;20019;-81
2023/05/22 11:17:30;;;;;;;6.38;4.25;;;26.30;61.80;;;;;;6216928;23;20075;-79
2023/05/22 11:20:06;;;;;;;10.20;4.15;;;26.40;61.70;;;;;;6216838;23;20007;-83
2023/05/22 11:22:43;;;;;;;7.50;4.65;;;26.60;61.10;;;;;;6191750;23;20068;-81
2023/05/22 11:25:17;;;;;;;11.80;4.97;;;26.50;61.00;;;;;;6216186;23;20066;-80
2023/05/22 11:27:43;;;;;;;8.93;4.40;;;26.50;60.80;;;;;;6215538;23;20008;-80
2023/05/22 11:30:10;;;;;;;10.75;5.00;;;26.60;62.30;;;;;;6217446;23;20008;-84
2023/05/22 11:32:37;;;;;;;9.60;4.88;;;26.60;61.30;;;;;;6225311;23;20000;-84
2023/05/22 11:35:10;;;;;;;9.52;4.35;;;26.70;60.90;;;;;;6196304;23;20046;-85
2023/05/22 11:37:39;;;;;;;8.75;4.95;;;26.60;60.20;;;;;;6224306;23;20359;-87
2023/05/22 11:40:06;;;;;;;7.35;4.38;;;26.50;60.50;;;;;;6222525;23;20064;-88
2023/05/22 11:42:32;;;;;;;9.55;4.53;;;26.20;60.10;;;;;;6197012;23;20005;-89
2023/05/22 11:44:59;;;;;;;12.40;4.63;;;26.00;60.50;;;;;;6228552;23;20013;-89
2023/05/22 11:47:28;;;;;;;7.55;4.30;;;25.90;60.40;;;;;;6223892;23;19997;-92
2023/05/22 11:49:55;;;;;;;9.70;4.78;;;26.00;61.10;;;;;;6228744;23;20082;-89
2023/05/22 11:52:21;;;;;;;11.93;5.25;;;26.10;61.00;;;;;;6224608;23;20053;-84
2023/05/22 11:54:47;;;;;;;7.80;4.50;;;26.30;61.30;;;;;;6220657;23;20338;-84
2023/05/22 11:57:14;;;;;;;10.48;4.82;;;26.50;61.40;;;;;;6192669;23;20008;-85
2023/05/22 11:59:43;;;;;;;9.35;4.47;;;26.80;60.20;;;;;;6192505;23;20005;-86
2023/05/22 12:02:09;;;;;;;9.25;4.43;;;27.00;60.30;;;;;;6218633;23;20016;-86
2023/05/22 12:04:36;;;;;;;10.27;4.50;;;27.20;59.80;;;;;;6219022;23;20095;-85
2023/05/22 12:07:03;;;;;;;7.88;4.50;;;27.30;59.70;;;;;;6221177;23;19996;-85
2023/05/22 12:09:29;;;;;;;9.70;4.35;;;27.40;59.30;;;;;;6218754;23;20049;-91
2023/05/22 12:11:56;;;;;;;8.07;4.07;;;27.50;58.90;;;;;;6218964;23;20446;-82
2023/05/22 12:14:27;;;;;;;18.80;4.78;;;27.50;59.30;;;;;;6215936;23;20015;-86
2023/05/22 12:16:53;;;;;;;11.15;4.35;;;27.60;58.80;;;;;;6192528;23;20674;-87
2023/05/22 12:19:19;;;;;;;8.50;4.40;;;27.60;59.00;;;;;;6219390;23;20000;-88
2023/05/22 12:21:48;;;;;;;8.90;4.50;;;27.60;58.90;;;;;;6220895;23;20004;-85
2023/05/22 12:24:14;;;;;;;10.27;4.47;;;27.50;59.00;;;;;;6224659;23;19997;-85
2023/05/22 12:26:40;;;;;;;6.95;3.95;;;27.40;58.50;;;;;;6218711;23;20010;-87
2023/05/22 12:29:06;;;;;;;15.65;4.95;;;27.10;58.40;;;;;;6218246;23;20016;-85
2023/05/22 12:31:36;;;;;;;15.80;4.53;;;27.00;58.70;;;;;;6193119;23;20008;-86
2023/05/22 12:34:05;;;;;;;14.23;4.63;;;27.00;59.30;;;;;;6190504;23;20322;-83
2023/05/22 12:36:37;;;;;;;8.30;4.20;;;26.90;59.70;;;;;;6224724;23;20009;-88
2023/05/22 12:39:07;;;;;;;8.35;4.65;;;26.90;59.70;;;;;;6221292;23;20000;-88